Banos de Copahue, Argentina
Current Conditions -  °F | °C
As of 1:00 PM on Friday 31 Oct 2014 (Local Time) from SCQP Reporting Station
Broken Clouds Broken Clouds  
Wind Chill: 54°   Ceiling: 4300
Heat Index: 54°   Visibility: 6mi
Dew Point: 39°   Wind: 6mph
Humidity: 58%   Direction: 100°E
Pressure: 30.21"   Gusts: NA
Location:  37.8°S, 71.12°W
Report Text: SCQP 311600Z 10005KT 360V150 9999 BKN043 12/04 Q1023
Loading
Personal Weather Stations






























Interactive Weather Map
Tropical Storm Tracking
New forecast layout! Learn more

10-Day Weather Forecast

Advertisements
Track Severe Weather on mobile